LFRK/CFR METAR and TAF weather

Enter ICAO airport designator
Station Type Date Time Source
LFRK METAR 2019/10/23 03:00 UTC NOAA

LFRK 230300Z AUTO VRB02KT CAVOK 11/10 Q1017


Station Type Date Time Source
LFRK Decoded METAR 2019/10/23 03:00 UTC NOAA

Caen, France (LFRK) 49-11N 000-27W 67M
Oct 22, 2019 - 11:00 PM EDT / 2019.10.23 0300 UTC
Wind: Variable at 2 MPH (2 KT):0
Visibility: greater than 7 mile(s):0
Temperature: 51 F (11 C)
Dew Point: 50 F (10 C)
Relative Humidity: 93%
Pressure (altimeter): 30.03 in. Hg (1017 hPa)
ob: LFRK 230300Z AUTO VRB02KT CAVOK 11/10 Q1017
cycle: 3

Station Type Date Time Source
LFRK TAF UTC NOAA

Error!

Example: see airport list